Time;durP1;ratioP1;P1;durP2;ratioP2;P2;SDS_P1;SDS_P2;PMS_P1;PMS_P2;Temp;Humidity;BMP_temperature;BMP_pressure;BME280_temperature;BME280_humidity;BME280_pressure;Samples;Min_cycle;Max_cycle;Signal;HPM_P1;HPM_P2
2023/05/10 03:16:19;;;;;;;0.75;0.00;;;14.60;97.40;;;;;;6167237;22;89236;-76
2023/05/10 03:18:55;;;;;;;0.77;0.00;;;14.70;98.00;;;;;;6246301;22;87440;-78
2023/05/10 03:21:25;;;;;;;2.45;0.00;;;14.70;97.80;;;;;;6247898;22;88579;-77
2023/05/10 03:24:00;;;;;;;0.75;0.10;;;14.70;98.40;;;;;;6247954;22;88549;-77
2023/05/10 03:26:28;;;;;;;0.57;0.10;;;14.60;98.80;;;;;;6247820;22;87865;-76
2023/05/10 03:28:55;;;;;;;0.35;0.10;;;14.50;99.50;;;;;;6248782;22;87009;-77
2023/05/10 03:31:21;;;;;;;2.00;0.00;;;14.50;99.90;;;;;;6247492;22;88206;-76
2023/05/10 03:33:51;;;;;;;2.08;0.10;;;14.50;99.90;;;;;;6247821;22;87551;-76
2023/05/10 03:36:18;;;;;;;0.40;0.10;;;14.50;99.90;;;;;;6249809;22;87346;-76
2023/05/10 03:38:43;;;;;;;0.63;0.10;;;14.60;99.90;;;;;;6249988;22;86380;-76
2023/05/10 03:41:09;;;;;;;1.48;0.10;;;14.60;99.90;;;;;;6248067;22;88086;-78
2023/05/10 03:43:35;;;;;;;1.50;0.10;;;14.50;99.90;;;;;;6247438;22;87369;-76
2023/05/10 03:46:05;;;;;;;0.63;0.00;;;14.60;99.90;;;;;;6248444;22;88608;-77
2023/05/10 03:48:32;;;;;;;0.40;0.00;;;14.50;99.90;;;;;;6250458;22;87482;-76
2023/05/10 03:50:57;;;;;;;0.82;0.00;;;14.50;99.90;;;;;;6249913;22;88126;-75
2023/05/10 03:53:23;;;;;;;1.08;0.10;;;14.50;99.90;;;;;;6249183;22;88104;-75
2023/05/10 03:55:49;;;;;;;0.95;0.10;;;14.50;99.90;;;;;;6249790;22;87488;-75
2023/05/10 03:58:15;;;;;;;1.00;0.10;;;14.60;99.90;;;;;;6248876;22;87484;-75
2023/05/10 04:00:43;;;;;;;1.40;0.00;;;14.50;99.90;;;;;;6246900;22;87547;-75
2023/05/10 04:03:09;;;;;;;2.22;0.10;;;14.50;99.90;;;;;;6245605;22;88208;-74
2023/05/10 04:05:35;;;;;;;1.30;0.05;;;14.50;99.90;;;;;;6248970;22;87349;-75
2023/05/10 04:08:02;;;;;;;3.45;0.10;;;14.60;99.90;;;;;;6249589;22;87271;-74
2023/05/10 04:10:27;;;;;;;1.30;0.03;;;14.60;99.60;;;;;;6248589;22;89553;-74
2023/05/10 04:12:53;;;;;;;0.98;0.10;;;14.70;99.40;;;;;;6248891;22;88581;-75
2023/05/10 04:15:19;;;;;;;1.55;0.20;;;14.80;99.90;;;;;;6249459;22;87306;-74
2023/05/10 04:17:45;;;;;;;0.85;0.00;;;14.80;99.40;;;;;;6248379;22;87395;-75
2023/05/10 04:20:11;;;;;;;1.55;0.10;;;14.80;99.60;;;;;;6248503;22;88125;-74
2023/05/10 04:22:37;;;;;;;1.45;0.20;;;14.80;99.50;;;;;;6250074;22;87331;-75
2023/05/10 04:25:04;;;;;;;1.10;0.10;;;14.80;98.90;;;;;;6249698;22;87355;-76
2023/05/10 04:27:30;;;;;;;2.88;0.10;;;14.90;99.80;;;;;;6249854;22;86632;-77
2023/05/10 04:29:57;;;;;;;1.85;0.13;;;14.90;99.50;;;;;;6248674;22;88574;-78
2023/05/10 04:32:22;;;;;;;2.80;0.00;;;15.00;98.20;;;;;;6248913;22;87375;-74
2023/05/10 04:34:48;;;;;;;3.83;0.10;;;15.00;98.80;;;;;;6249166;22;88404;-75
2023/05/10 04:37:14;;;;;;;1.38;0.47;;;15.10;98.60;;;;;;6247493;22;87439;-74
2023/05/10 04:39:40;;;;;;;1.00;0.10;;;15.00;98.30;;;;;;6248138;22;87744;-75
2023/05/10 04:42:06;;;;;;;0.63;0.05;;;15.10;98.30;;;;;;6245319;22;87687;-74
2023/05/10 04:44:32;;;;;;;0.75;0.10;;;15.10;97.70;;;;;;6248122;22;87484;-72
2023/05/10 04:47:00;;;;;;;0.82;0.10;;;15.20;98.30;;;;;;6247105;22;87466;-79
2023/05/10 04:49:25;;;;;;;1.15;0.10;;;15.20;97.80;;;;;;6248023;22;87537;-78
2023/05/10 04:51:51;;;;;;;0.88;0.10;;;15.20;97.90;;;;;;6247259;22;87999;-75
2023/05/10 04:54:17;;;;;;;0.50;0.13;;;15.20;98.40;;;;;;6248103;22;87297;-75
2023/05/10 04:56:42;;;;;;;1.33;0.10;;;15.30;98.10;;;;;;6247339;22;87453;-76
2023/05/10 04:59:08;;;;;;;0.47;0.08;;;15.30;97.80;;;;;;6245989;22;88922;-75
2023/05/10 05:01:33;;;;;;;2.53;0.10;;;15.40;96.70;;;;;;6247707;22;88702;-76
2023/05/10 05:04:00;;;;;;;1.98;0.10;;;15.50;96.10;;;;;;6249429;22;87279;-75
2023/05/10 05:06:27;;;;;;;0.75;0.10;;;15.60;95.20;;;;;;6249870;22;86943;-75
2023/05/10 05:08:52;;;;;;;0.52;0.10;;;15.70;96.80;;;;;;6248320;22;88309;-75
2023/05/10 05:11:18;;;;;;;1.73;0.10;;;15.80;96.60;;;;;;6246433;22;87289;-75
2023/05/10 05:13:44;;;;;;;0.52;0.00;;;16.00;95.30;;;;;;6248317;22;87240;-75
2023/05/10 05:16:11;;;;;;;0.52;0.10;;;16.10;94.40;;;;;;6244803;22;86591;-75
2023/05/10 05:18:36;;;;;;;1.20;0.00;;;16.20;94.10;;;;;;6245445;22;88696;-76
2023/05/10 05:21:02;;;;;;;0.82;0.10;;;16.30;93.80;;;;;;6246075;22;88733;-75
2023/05/10 05:23:28;;;;;;;3.22;0.63;;;16.40;94.10;;;;;;6246365;22;88219;-74
2023/05/10 05:25:54;;;;;;;2.25;1.08;;;16.50;94.30;;;;;;6247928;22;87561;-77
2023/05/10 05:28:20;;;;;;;2.08;0.82;;;16.50;94.90;;;;;;6248083;22;88589;-75
2023/05/10 05:30:46;;;;;;;2.13;0.43;;;16.50;94.50;;;;;;6247398;22;87737;-75
2023/05/10 05:33:13;;;;;;;0.88;0.20;;;16.60;94.00;;;;;;6246724;22;87446;-75
2023/05/10 05:35:39;;;;;;;4.07;1.10;;;16.70;94.50;;;;;;6247953;22;87023;-75
2023/05/10 05:38:05;;;;;;;2.33;0.70;;;16.80;93.20;;;;;;6247879;22;87576;-75
2023/05/10 05:40:30;;;;;;;2.05;0.22;;;16.70;92.20;;;;;;6249208;22;87817;-75
2023/05/10 05:42:56;;;;;;;1.27;0.40;;;16.70;92.50;;;;;;6248742;22;87021;-75
2023/05/10 05:45:22;;;;;;;1.30;0.20;;;16.70;93.30;;;;;;6249382;22;87804;-75
2023/05/10 05:47:48;;;;;;;0.90;0.28;;;16.70;93.30;;;;;;6247479;22;88598;-75
2023/05/10 05:50:13;;;;;;;1.30;0.20;;;16.70;94.20;;;;;;6247691;22;87801;-75
2023/05/10 05:52:39;;;;;;;1.35;0.20;;;16.70;93.10;;;;;;6248592;22;87198;-75
2023/05/10 05:55:05;;;;;;;2.40;0.32;;;16.60;93.90;;;;;;6247546;22;87028;-76
2023/05/10 05:57:31;;;;;;;10.15;0.40;;;16.50;94.60;;;;;;6249923;22;89270;-75
2023/05/10 05:59:56;;;;;;;2.13;0.10;;;16.50;95.40;;;;;;6250425;22;87687;-75
2023/05/10 06:02:22;;;;;;;1.23;0.13;;;16.40;90.50;;;;;;6252265;22;87330;-75
2023/05/10 06:04:48;;;;;;;2.22;0.10;;;16.40;91.50;;;;;;6253316;22;86578;-76
2023/05/10 06:07:13;;;;;;;0.70;0.10;;;16.40;92.90;;;;;;6251080;22;88056;-75
2023/05/10 06:09:39;;;;;;;0.50;0.00;;;16.40;93.10;;;;;;6250620;22;87718;-75
2023/05/10 06:12:05;;;;;;;0.35;0.03;;;16.50;91.30;;;;;;6251818;22;88018;-75
2023/05/10 06:14:31;;;;;;;0.40;0.03;;;16.50;91.50;;;;;;6252079;22;86983;-75
2023/05/10 06:16:56;;;;;;;0.32;0.08;;;16.60;92.10;;;;;;6251212;22;87173;-75
2023/05/10 06:19:22;;;;;;;0.88;0.10;;;16.50;91.60;;;;;;6251938;22;88208;-75
2023/05/10 06:21:48;;;;;;;0.60;0.10;;;16.50;91.00;;;;;;6224456;22;87835;-75
2023/05/10 06:24:13;;;;;;;1.00;0.00;;;16.50;91.30;;;;;;6252048;22;87270;-75
2023/05/10 06:26:39;;;;;;;2.90;0.10;;;16.40;90.90;;;;;;6252304;22;87661;-75
2023/05/10 06:29:05;;;;;;;0.75;0.00;;;16.30;91.80;;;;;;6252594;22;88300;-75
2023/05/10 06:31:30;;;;;;;2.97;0.10;;;16.30;90.70;;;;;;6252991;22;87331;-75
2023/05/10 06:33:57;;;;;;;0.82;0.10;;;16.30;91.60;;;;;;6252267;22;87437;-75
2023/05/10 06:36:24;;;;;;;0.73;0.10;;;16.30;91.50;;;;;;6251423;22;89599;-75
2023/05/10 06:38:51;;;;;;;1.02;0.13;;;16.30;92.80;;;;;;6252206;22;88189;-75
2023/05/10 06:41:16;;;;;;;2.90;0.17;;;16.20;92.70;;;;;;6253684;22;86946;-75
2023/05/10 06:43:43;;;;;;;1.17;0.20;;;16.30;92.00;;;;;;6260508;22;87257;-75
2023/05/10 06:46:08;;;;;;;1.30;0.10;;;16.40;92.70;;;;;;6259963;22;87569;-75
2023/05/10 06:48:34;;;;;;;1.88;0.10;;;16.40;92.80;;;;;;6259066;22;88171;-75
2023/05/10 06:51:00;;;;;;;2.88;0.20;;;16.40;91.30;;;;;;6259912;22;86989;-75
2023/05/10 06:53:26;;;;;;;0.60;0.10;;;16.40;90.80;;;;;;6260701;22;86772;-75
2023/05/10 06:55:52;;;;;;;1.27;0.15;;;16.30;90.20;;;;;;6260084;22;87952;-76
2023/05/10 06:58:17;;;;;;;1.02;0.20;;;16.30;90.60;;;;;;6259442;22;87502;-75
2023/05/10 07:00:45;;;;;;;1.27;0.10;;;16.40;91.50;;;;;;6258663;22;88223;-75
2023/05/10 07:03:10;;;;;;;5.18;0.10;;;16.40;91.60;;;;;;6260161;22;86899;-75
2023/05/10 07:05:36;;;;;;;0.88;0.10;;;16.40;90.50;;;;;;6259786;22;87627;-75
2023/05/10 07:08:02;;;;;;;2.72;0.13;;;16.40;90.70;;;;;;6258786;22;87695;-75
2023/05/10 07:10:28;;;;;;;2.92;0.10;;;16.40;90.90;;;;;;6257604;22;86835;-75
2023/05/10 07:12:53;;;;;;;0.75;0.10;;;16.30;91.40;;;;;;6257939;22;87378;-75
2023/05/10 07:15:19;;;;;;;0.65;0.03;;;16.30;91.10;;;;;;6257627;22;87182;-75
2023/05/10 07:17:45;;;;;;;1.02;0.10;;;16.30;91.10;;;;;;6257867;22;87058;-75
2023/05/10 07:20:11;;;;;;;1.08;0.10;;;16.30;91.60;;;;;;6257787;22;87016;-75
2023/05/10 07:22:37;;;;;;;1.95;0.08;;;16.30;90.50;;;;;;6258408;22;87246;-75
2023/05/10 07:25:03;;;;;;;1.27;0.30;;;16.40;91.20;;;;;;6256693;22;88310;-75
2023/05/10 07:27:28;;;;;;;1.25;0.20;;;16.40;90.80;;;;;;6255497;22;87455;-75
2023/05/10 07:29:54;;;;;;;1.95;0.20;;;16.50;90.90;;;;;;6249906;22;87293;-75
2023/05/10 07:32:21;;;;;;;3.28;0.13;;;16.60;92.50;;;;;;6250039;22;87538;-75
2023/05/10 07:34:46;;;;;;;2.88;0.17;;;16.60;91.70;;;;;;6249624;22;87509;-77
2023/05/10 07:37:12;;;;;;;0.70;0.20;;;16.70;91.20;;;;;;6249348;22;87692;-75
2023/05/10 07:39:38;;;;;;;2.88;0.13;;;16.70;91.60;;;;;;6249917;22;87230;-77
2023/05/10 07:42:04;;;;;;;1.85;0.10;;;16.70;92.10;;;;;;6250605;22;86614;-77
2023/05/10 07:44:29;;;;;;;0.32;0.08;;;16.70;92.00;;;;;;6249536;22;88513;-77
2023/05/10 07:46:55;;;;;;;0.50;0.10;;;16.60;92.70;;;;;;6249988;22;87644;-77
2023/05/10 07:49:21;;;;;;;1.13;0.10;;;16.60;93.20;;;;;;6249674;22;88395;-77
2023/05/10 07:51:47;;;;;;;1.40;0.20;;;16.50;92.80;;;;;;6249809;22;87078;-78
2023/05/10 07:54:13;;;;;;;2.13;0.30;;;16.50;92.70;;;;;;6249597;22;87953;-77
2023/05/10 07:56:40;;;;;;;0.73;0.05;;;16.40;91.90;;;;;;6249836;22;87513;-77
2023/05/10 07:59:06;;;;;;;2.10;0.20;;;16.30;93.10;;;;;;6222993;22;87318;-77
2023/05/10 08:01:33;;;;;;;1.00;0.20;;;16.40;93.10;;;;;;6250138;22;87282;-77
2023/05/10 08:03:59;;;;;;;4.18;0.20;;;16.40;93.00;;;;;;6249526;22;88447;-77
2023/05/10 08:06:26;;;;;;;1.20;0.13;;;16.30;93.50;;;;;;6250101;22;88294;-77
2023/05/10 08:08:53;;;;;;;0.65;0.10;;;16.20;91.80;;;;;;6249944;22;87531;-77
2023/05/10 08:11:20;;;;;;;1.48;0.13;;;16.20;92.00;;;;;;6250125;22;87199;-77
2023/05/10 08:13:47;;;;;;;1.10;0.10;;;16.20;91.60;;;;;;6248734;22;89423;-76
2023/05/10 08:16:12;;;;;;;2.00;0.10;;;16.20;92.20;;;;;;6249190;22;88154;-77
2023/05/10 08:18:38;;;;;;;1.90;0.10;;;16.10;92.70;;;;;;6250277;22;87410;-77
2023/05/10 08:21:05;;;;;;;1.75;0.10;;;16.10;92.40;;;;;;6248895;22;87782;-77
2023/05/10 08:23:31;;;;;;;0.30;0.00;;;16.00;92.50;;;;;;6222470;22;88474;-77
2023/05/10 08:25:56;;;;;;;3.03;0.05;;;15.90;91.70;;;;;;6249574;22;87356;-77
2023/05/10 08:28:22;;;;;;;5.25;0.00;;;15.80;92.20;;;;;;6249834;22;87387;-77
2023/05/10 08:30:49;;;;;;;9.73;0.10;;;15.80;92.40;;;;;;6250756;22;86683;-77
2023/05/10 08:33:15;;;;;;;8.40;0.15;;;15.90;92.30;;;;;;6249690;22;87514;-77
2023/05/10 08:35:41;;;;;;;4.57;0.10;;;15.90;92.00;;;;;;6249331;22;87571;-77
2023/05/10 08:38:07;;;;;;;4.75;0.10;;;15.90;91.80;;;;;;6249476;22;87867;-77
2023/05/10 08:40:33;;;;;;;2.60;0.10;;;16.00;91.80;;;;;;6250393;22;87296;-77
2023/05/10 08:43:08;;;;;;;0.63;0.00;;;16.10;91.90;;;;;;6249894;22;88348;-76
2023/05/10 08:45:38;;;;;;;0.70;0.03;;;16.30;92.30;;;;;;6248710;22;88180;-77
2023/05/10 08:48:06;;;;;;;5.28;0.10;;;16.40;92.50;;;;;;6250065;22;87121;-77
2023/05/10 08:50:35;;;;;;;0.70;0.10;;;16.50;92.50;;;;;;6250973;22;87539;-77
2023/05/10 08:53:04;;;;;;;3.78;0.13;;;16.60;92.20;;;;;;6250008;22;88039;-77
2023/05/10 08:55:30;;;;;;;1.85;0.13;;;16.70;92.00;;;;;;6250264;22;86656;-77
2023/05/10 08:57:55;;;;;;;5.55;0.13;;;16.70;91.40;;;;;;6249415;22;87057;-77
2023/05/10 09:00:23;;;;;;;2.53;0.13;;;16.70;91.30;;;;;;6250310;22;87303;-77
2023/05/10 09:02:50;;;;;;;2.25;0.15;;;16.80;91.40;;;;;;6248599;22;88474;-77
2023/05/10 09:05:17;;;;;;;4.82;0.13;;;16.80;90.80;;;;;;6249015;22;89201;-77
2023/05/10 09:07:43;;;;;;;2.58;0.10;;;16.90;91.30;;;;;;6250003;22;87808;-75
2023/05/10 09:10:10;;;;;;;1.13;0.10;;;16.90;90.60;;;;;;6249792;22;87138;-77
2023/05/10 09:12:36;;;;;;;5.57;0.20;;;17.00;89.60;;;;;;6249141;22;87826;-77
2023/05/10 09:15:03;;;;;;;2.65;0.20;;;17.20;90.30;;;;;;6221889;22;88811;-77
2023/05/10 09:17:30;;;;;;;2.05;0.20;;;17.30;90.00;;;;;;6249372;22;87442;-76
2023/05/10 09:19:59;;;;;;;0.73;0.10;;;17.40;87.60;;;;;;6249944;22;86567;-77
2023/05/10 09:22:25;;;;;;;1.58;0.10;;;17.40;86.70;;;;;;6249812;22;88411;-77
2023/05/10 09:25:20;;;;;;;1.15;0.13;;;17.40;86.70;;;;;;6250034;22;87323;-77
2023/05/10 09:27:47;;;;;;;0.93;0.10;;;17.40;87.50;;;;;;6228084;22;87996;-77
2023/05/10 09:30:23;;;;;;;1.85;0.30;;;17.40;88.60;;;;;;6249431;22;87237;-77
2023/05/10 09:32:49;;;;;;;;;;;17.40;87.20;;;;;;6249867;22;88610;-77
2023/05/10 09:35:19;;;;;;;2.47;0.43;;;17.30;86.50;;;;;;6251005;22;87036;-77
2023/05/10 09:37:50;;;;;;;6.13;1.67;;;17.20;86.30;;;;;;6249317;22;87292;-77
2023/05/10 09:40:23;;;;;;;2.55;0.50;;;17.20;86.30;;;;;;6249810;22;87252;-77
2023/05/10 09:43:02;;;;;;;1.80;0.10;;;17.20;86.50;;;;;;6249283;22;87700;-77
2023/05/10 09:45:32;;;;;;;1.17;0.30;;;17.30;85.40;;;;;;6249034;22;87622;-77
2023/05/10 09:47:59;;;;;;;1.25;0.10;;;17.20;85.90;;;;;;6249543;22;87034;-77
2023/05/10 09:50:25;;;;;;;0.70;0.10;;;17.20;85.50;;;;;;6249728;22;87686;-77
2023/05/10 09:53:03;;;;;;;1.58;0.10;;;17.20;85.80;;;;;;6248307;22;90635;-77
2023/05/10 09:55:49;;;;;;;0.85;0.10;;;17.20;85.80;;;;;;6247308;22;88142;-76
2023/05/10 09:58:15;;;;;;;0.85;0.03;;;17.20;86.50;;;;;;6248899;22;87554;-76
2023/05/10 10:00:43;;;;;;;1.55;0.10;;;17.20;86.50;;;;;;6248490;22;87345;-76
2023/05/10 10:03:14;;;;;;;1.38;0.20;;;17.20;84.50;;;;;;6249065;22;88077;-76
2023/05/10 10:05:42;;;;;;;2.67;0.20;;;17.20;85.30;;;;;;6248186;22;87729;-76
2023/05/10 10:08:08;;;;;;;0.52;0.10;;;17.20;85.30;;;;;;6247780;22;87276;-77
2023/05/10 10:10:34;;;;;;;2.38;0.05;;;17.20;85.20;;;;;;6249039;22;86556;-76
2023/05/10 10:13:01;;;;;;;0.95;0.10;;;17.20;83.00;;;;;;6248587;22;87769;-76
2023/05/10 10:15:26;;;;;;;0.60;0.10;;;17.20;83.50;;;;;;6247829;22;87799;-76
2023/05/10 10:17:53;;;;;;;0.70;0.10;;;17.10;82.70;;;;;;6248042;22;88290;-76
2023/05/10 10:20:22;;;;;;;0.80;0.10;;;17.00;82.70;;;;;;6245440;22;87170;-76
2023/05/10 10:22:48;;;;;;;0.43;0.22;;;16.90;82.00;;;;;;6248022;22;88119;-76
2023/05/10 10:25:15;;;;;;;3.40;0.28;;;16.90;84.40;;;;;;6247547;22;87828;-76
2023/05/10 10:27:53;;;;;;;0.80;0.03;;;16.90;83.80;;;;;;6249263;22;87398;-77
2023/05/10 10:30:37;;;;;;;1.08;0.03;;;17.00;83.90;;;;;;6249270;22;87255;-76
2023/05/10 10:33:22;;;;;;;1.77;0.10;;;16.90;84.80;;;;;;6248117;22;87499;-76
2023/05/10 10:35:49;;;;;;;3.03;0.03;;;17.00;84.80;;;;;;6246919;22;87111;-77
2023/05/10 10:38:16;;;;;;;3.92;0.10;;;17.00;83.20;;;;;;6246685;22;87566;-77
2023/05/10 10:40:42;;;;;;;1.50;0.10;;;17.00;82.90;;;;;;6219569;22;86977;-76
2023/05/10 10:43:27;;;;;;;0.68;0.10;;;17.00;83.80;;;;;;6242470;22;88454;-77
2023/05/10 10:46:14;;;;;;;1.10;0.03;;;17.10;85.70;;;;;;6249241;22;88130;-76
2023/05/10 10:49:07;;;;;;;0.63;0.10;;;17.10;83.10;;;;;;6249182;22;87427;-76
2023/05/10 10:51:36;;;;;;;1.15;0.30;;;17.10;83.40;;;;;;6250270;22;87940;-76
2023/05/10 10:54:10;;;;;;;1.42;0.10;;;17.20;83.00;;;;;;6248281;22;87687;-76
2023/05/10 10:56:35;;;;;;;1.23;0.10;;;17.40;81.60;;;;;;6249181;22;87707;-76
2023/05/10 10:59:01;;;;;;;0.90;0.15;;;17.50;80.70;;;;;;6248376;22;87614;-77
2023/05/10 11:01:35;;;;;;;1.65;0.03;;;17.70;78.20;;;;;;6247983;22;86472;-77
2023/05/10 11:04:04;;;;;;;1.85;0.00;;;17.90;77.90;;;;;;6247016;22;87320;-79
2023/05/10 11:06:36;;;;;;;2.15;0.08;;;18.00;79.70;;;;;;6246047;22;87799;-85
2023/05/10 11:09:11;;;;;;;3.72;0.40;;;18.20;78.00;;;;;;6219002;22;88466;-85
2023/05/10 11:11:49;;;;;;;0.90;0.20;;;18.30;79.00;;;;;;6242186;22;88001;-85
2023/05/10 11:14:21;;;;;;;1.75;0.10;;;18.60;77.10;;;;;;6244463;22;88009;-84
2023/05/10 11:16:46;;;;;;;2.95;0.20;;;18.60;75.20;;;;;;6246537;22;87233;-84
2023/05/10 11:19:14;;;;;;;1.08;0.10;;;18.60;72.80;;;;;;6242355;22;87700;-84
2023/05/10 11:21:51;;;;;;;3.72;0.15;;;18.50;72.30;;;;;;6245108;22;87381;-81
2023/05/10 11:24:19;;;;;;;1.92;0.13;;;18.50;73.40;;;;;;6242774;22;88062;-85
2023/05/10 11:26:45;;;;;;;2.42;0.20;;;18.60;73.30;;;;;;6243131;22;87209;-80
2023/05/10 11:29:13;;;;;;;0.80;0.20;;;18.70;72.70;;;;;;6236534;22;87591;-84
2023/05/10 11:31:46;;;;;;;1.73;0.10;;;18.70;70.20;;;;;;6240565;22;87342;-83
2023/05/10 11:34:30;;;;;;;2.95;0.30;;;18.80;72.40;;;;;;6245461;22;89452;-83
2023/05/10 11:36:56;;;;;;;13.10;0.77;;;18.80;68.00;;;;;;6245615;22;88432;-83
2023/05/10 11:39:27;;;;;;;5.32;0.10;;;18.70;70.50;;;;;;6246550;22;87549;-81
2023/05/10 11:41:53;;;;;;;10.43;0.40;;;18.80;68.50;;;;;;6246987;22;87283;-84
2023/05/10 11:44:19;;;;;;;15.68;0.85;;;18.80;68.90;;;;;;6244621;22;88681;-84
2023/05/10 11:46:45;;;;;;;11.90;0.22;;;18.90;69.30;;;;;;6244924;22;87811;-80
2023/05/10 11:49:11;;;;;;;2.70;0.30;;;18.90;66.90;;;;;;6245715;22;87333;-81
2023/05/10 11:51:37;;;;;;;15.25;0.75;;;18.80;66.80;;;;;;6247126;22;86556;-83
2023/05/10 11:54:08;;;;;;;2.33;0.20;;;18.90;69.20;;;;;;6244937;22;87996;-83
2023/05/10 11:56:34;;;;;;;1.90;0.17;;;19.00;69.60;;;;;;6246195;22;88521;-81
2023/05/10 11:59:01;;;;;;;13.85;0.30;;;19.00;67.00;;;;;;6246555;22;88517;-80
2023/05/10 12:01:28;;;;;;;21.75;1.42;;;18.90;67.50;;;;;;6247463;22;87566;-82
2023/05/10 12:03:59;;;;;;;1.02;0.20;;;18.90;68.80;;;;;;6246913;22;88445;-83
2023/05/10 12:06:28;;;;;;;8.02;0.30;;;18.80;67.40;;;;;;6247815;22;87306;-83
2023/05/10 12:08:54;;;;;;;2.83;0.28;;;18.90;68.80;;;;;;6247315;22;87399;-77
2023/05/10 12:11:21;;;;;;;1.40;0.15;;;18.80;70.50;;;;;;6248257;22;87312;-84
2023/05/10 12:13:47;;;;;;;0.85;0.10;;;19.00;69.80;;;;;;6246359;22;88667;-83
2023/05/10 12:16:17;;;;;;;2.03;0.22;;;19.10;69.10;;;;;;6246984;22;87858;-83
2023/05/10 12:18:44;;;;;;;1.67;0.10;;;19.20;70.90;;;;;;6247928;22;87152;-81
2023/05/10 12:21:13;;;;;;;4.53;0.10;;;19.20;68.60;;;;;;6246773;22;87413;-84
2023/05/10 12:23:39;;;;;;;3.67;0.10;;;19.20;70.70;;;;;;6246493;22;88942;-79
2023/05/10 12:26:06;;;;;;;1.02;0.10;;;19.10;68.80;;;;;;6239922;22;88596;-81
2023/05/10 12:28:33;;;;;;;1.50;0.10;;;19.00;69.40;;;;;;6245395;22;86993;-79
2023/05/10 12:31:03;;;;;;;1.95;0.10;;;18.90;70.20;;;;;;6247761;22;87354;-79
2023/05/10 12:33:42;;;;;;;2.13;0.20;;;18.70;70.30;;;;;;6243039;22;88194;-81
2023/05/10 12:36:10;;;;;;;2.13;0.25;;;18.60;71.20;;;;;;6244986;22;88831;-81
2023/05/10 12:38:44;;;;;;;1.60;0.30;;;18.40;72.80;;;;;;6246926;22;87658;-82
2023/05/10 12:41:13;;;;;;;3.33;0.20;;;18.40;72.90;;;;;;6246361;22;86472;-82
2023/05/10 12:43:39;;;;;;;1.10;0.10;;;18.40;74.20;;;;;;6246249;22;88126;-83
2023/05/10 12:46:09;;;;;;;0.82;0.10;;;18.30;73.90;;;;;;6245926;22;87556;-83
2023/05/10 12:48:36;;;;;;;2.15;0.22;;;18.40;74.60;;;;;;6245608;22;89249;-83
2023/05/10 12:51:03;;;;;;;2.22;0.20;;;18.40;74.10;;;;;;6248446;22;87251;-84
2023/05/10 12:53:29;;;;;;;2.92;0.15;;;18.50;74.90;;;;;;6242356;22;87712;-80
2023/05/10 12:55:55;;;;;;;0.40;0.00;;;18.50;75.10;;;;;;6244963;22;88048;-81
2023/05/10 12:58:21;;;;;;;2.42;0.13;;;18.40;74.40;;;;;;6245302;22;87657;-80
2023/05/10 13:00:47;;;;;;;2.33;0.10;;;18.20;74.90;;;;;;6245763;22;87506;-79
2023/05/10 13:03:13;;;;;;;1.35;0.20;;;18.20;75.40;;;;;;6245034;22;87687;-84
2023/05/10 13:05:39;;;;;;;1.40;0.10;;;18.10;76.60;;;;;;6245962;22;87512;-83
2023/05/10 13:08:04;;;;;;;3.72;0.30;;;18.20;75.80;;;;;;6244979;22;87711;-82
2023/05/10 13:10:31;;;;;;;5.50;0.15;;;18.30;77.00;;;;;;6245271;22;87734;-81
2023/05/10 13:13:00;;;;;;;6.75;0.22;;;18.30;75.80;;;;;;6244654;22;88952;-82
2023/05/10 13:15:26;;;;;;;1.35;0.10;;;18.30;74.80;;;;;;6244504;22;87773;-81
2023/05/10 13:17:53;;;;;;;2.22;0.10;;;18.30;73.80;;;;;;6245501;22;87002;-81
2023/05/10 13:20:18;;;;;;;2.10;0.30;;;18.20;74.50;;;;;;6248274;22;86925;-81
2023/05/10 13:22:44;;;;;;;1.02;0.13;;;18.10;75.40;;;;;;6244971;22;88608;-80
2023/05/10 13:25:10;;;;;;;1.48;0.10;;;18.20;73.80;;;;;;6247178;22;87680;-81
2023/05/10 13:27:40;;;;;;;2.40;0.17;;;18.20;75.40;;;;;;6247131;22;87047;-80
2023/05/10 13:30:07;;;;;;;1.02;0.10;;;18.20;72.00;;;;;;6248486;22;86648;-81
2023/05/10 13:32:33;;;;;;;1.50;0.13;;;18.10;72.90;;;;;;6248250;22;89751;-79
2023/05/10 13:34:59;;;;;;;1.77;0.20;;;18.00;72.80;;;;;;6247646;22;87969;-78
2023/05/10 13:37:24;;;;;;;3.05;0.15;;;17.80;74.80;;;;;;6245576;22;88164;-79
2023/05/10 13:39:50;;;;;;;1.05;0.20;;;17.80;75.10;;;;;;6248578;22;87507;-81
2023/05/10 13:42:16;;;;;;;4.05;0.13;;;17.90;76.20;;;;;;6248218;22;87577;-80
2023/05/10 13:44:42;;;;;;;2.42;0.13;;;17.90;74.00;;;;;;6242889;22;87807;-80
2023/05/10 13:47:08;;;;;;;2.30;0.10;;;17.80;75.20;;;;;;6247798;22;87328;-80
2023/05/10 13:49:34;;;;;;;1.70;0.20;;;17.70;75.30;;;;;;6248601;22;87814;-79
2023/05/10 13:52:06;;;;;;;3.83;0.30;;;17.80;75.30;;;;;;6248344;22;88620;-80
2023/05/10 13:54:33;;;;;;;1.27;0.20;;;17.70;74.80;;;;;;6248510;22;87806;-79
2023/05/10 13:56:58;;;;;;;1.38;0.13;;;17.50;74.90;;;;;;6249242;22;88318;-79
2023/05/10 13:59:24;;;;;;;2.38;0.22;;;17.40;76.00;;;;;;6222319;22;87040;-80
2023/05/10 14:01:50;;;;;;;3.55;0.20;;;17.30;77.20;;;;;;6248439;22;89466;-80
2023/05/10 14:04:16;;;;;;;2.85;0.30;;;17.30;77.30;;;;;;6249066;22;89703;-80
2023/05/10 14:06:41;;;;;;;2.53;0.15;;;17.30;78.40;;;;;;6249245;22;87303;-80
2023/05/10 14:09:07;;;;;;;5.07;0.40;;;17.40;77.00;;;;;;6249170;22;87287;-79
2023/05/10 14:11:33;;;;;;;1.60;0.10;;;17.50;77.00;;;;;;6248918;22;88323;-79
2023/05/10 14:13:58;;;;;;;4.10;0.15;;;17.70;77.00;;;;;;6249084;22;87687;-80
2023/05/10 14:16:24;;;;;;;1.67;0.10;;;17.80;76.00;;;;;;6248726;22;87074;-80
2023/05/10 14:18:50;;;;;;;1.20;0.22;;;17.80;75.40;;;;;;6251081;22;86646;-77
2023/05/10 14:21:15;;;;;;;1.27;0.30;;;17.80;75.00;;;;;;6250080;22;87948;-77
2023/05/10 14:23:41;;;;;;;3.15;0.20;;;17.90;75.20;;;;;;6250244;22;88396;-80
2023/05/10 14:26:07;;;;;;;3.03;0.10;;;17.90;73.40;;;;;;6249952;22;88297;-80
2023/05/10 14:28:33;;;;;;;1.55;0.10;;;17.80;73.60;;;;;;6252256;22;87008;-79
2023/05/10 14:30:59;;;;;;;1.88;0.10;;;17.80;74.10;;;;;;6249913;22;88101;-79
2023/05/10 14:33:24;;;;;;;1.13;0.10;;;17.70;75.10;;;;;;6250303;22;87406;-80
2023/05/10 14:35:50;;;;;;;2.08;0.25;;;17.70;73.30;;;;;;6250083;22;86951;-78
2023/05/10 14:38:16;;;;;;;0.30;0.10;;;17.80;73.90;;;;;;6251103;22;87014;-80
2023/05/10 14:40:42;;;;;;;3.45;0.10;;;17.80;73.50;;;;;;6249569;22;87318;-80
2023/05/10 14:43:08;;;;;;;1.02;0.10;;;17.70;73.40;;;;;;6250453;22;87721;-79
2023/05/10 14:45:34;;;;;;;1.10;0.17;;;17.50;74.90;;;;;;6249123;22;87521;-79
2023/05/10 14:48:04;;;;;;;0.52;0.10;;;17.40;74.60;;;;;;6250502;22;87165;-79
2023/05/10 14:50:30;;;;;;;0.85;0.10;;;17.30;74.50;;;;;;6248981;22;89329;-80
2023/05/10 14:52:56;;;;;;;5.40;0.20;;;17.30;74.60;;;;;;6249373;22;88681;-80
2023/05/10 14:55:21;;;;;;;1.88;0.00;;;17.40;76.80;;;;;;6249441;22;87665;-79
2023/05/10 14:57:49;;;;;;;1.00;0.30;;;17.40;75.40;;;;;;6249451;22;86951;-80
2023/05/10 15:00:15;;;;;;;1.50;0.10;;;17.50;75.00;;;;;;6248840;22;87977;-79
2023/05/10 15:02:41;;;;;;;1.05;0.10;;;17.50;74.40;;;;;;6249375;22;88035;-79
2023/05/10 15:05:07;;;;;;;0.65;0.10;;;17.40;75.20;;;;;;6247582;22;87268;-78
2023/05/10 15:07:33;;;;;;;2.45;0.20;;;17.30;75.40;;;;;;6245940;22;86586;-82
2023/05/10 15:09:59;;;;;;;1.38;0.20;;;17.30;74.50;;;;;;6250073;22;87636;-79
2023/05/10 15:12:24;;;;;;;1.08;0.40;;;17.30;75.60;;;;;;6248692;22;87650;-80
2023/05/10 15:14:50;;;;;;;2.45;0.10;;;17.20;74.30;;;;;;6247800;22;88564;-81
2023/05/10 15:17:16;;;;;;;1.25;0.22;;;17.20;75.70;;;;;;6248197;22;87056;-79
2023/05/10 15:19:42;;;;;;;3.97;0.73;;;17.30;75.90;;;;;;6248620;22;87324;-80
2023/05/10 15:22:08;;;;;;;3.33;0.82;;;17.30;76.90;;;;;;6250004;22;89082;-81
2023/05/10 15:24:34;;;;;;;6.82;2.65;;;17.30;76.90;;;;;;6249410;22;87531;-79
2023/05/10 15:27:00;;;;;;;10.45;3.10;;;17.30;75.60;;;;;;6250189;22;87524;-80
2023/05/10 15:29:26;;;;;;;6.50;2.75;;;17.20;76.80;;;;;;6249000;22;88037;-79
2023/05/10 15:31:52;;;;;;;2.30;0.55;;;17.20;76.70;;;;;;6248708;22;88042;-81
2023/05/10 15:34:18;;;;;;;2.50;0.25;;;17.20;75.80;;;;;;6249269;22;87734;-79
2023/05/10 15:36:44;;;;;;;1.75;0.30;;;17.00;76.90;;;;;;6250727;22;87011;-78
2023/05/10 15:39:10;;;;;;;1.42;0.35;;;16.90;77.40;;;;;;6250354;22;88362;-79
2023/05/10 15:41:36;;;;;;;1.23;0.20;;;16.90;77.00;;;;;;6250354;22;89174;-79
2023/05/10 15:44:02;;;;;;;1.52;0.10;;;17.00;77.60;;;;;;6224883;22;87377;-78
2023/05/10 15:46:28;;;;;;;3.90;0.20;;;16.90;77.20;;;;;;6249442;22;87292;-79
2023/05/10 15:48:54;;;;;;;2.22;0.20;;;16.70;78.70;;;;;;6248113;22;87649;-78
2023/05/10 15:51:20;;;;;;;1.30;0.32;;;16.70;79.00;;;;;;6250353;22;87348;-80
2023/05/10 15:53:46;;;;;;;0.70;0.17;;;16.70;79.40;;;;;;6251042;22;87026;-80
2023/05/10 15:56:12;;;;;;;1.13;0.10;;;16.70;79.60;;;;;;6251209;22;86742;-79
2023/05/10 15:58:38;;;;;;;2.40;0.40;;;16.60;77.70;;;;;;6250822;22;88075;-79
2023/05/10 16:01:04;;;;;;;2.67;0.30;;;16.50;78.60;;;;;;6249813;22;87214;-79
2023/05/10 16:03:31;;;;;;;1.98;0.20;;;16.40;78.60;;;;;;6247039;22;88558;-78